sensor_id;sensor_type;location;lat;lon;timestamp;pressure;altitude;pressure_sealevel;temperature;humidity
53270;BME280;39159;45.634;9.420;2022-12-07T00:01:11;98712.66;;;2.31;100.00
53270;BME280;39159;45.634;9.420;2022-12-07T00:03:37;98705.94;;;2.28;100.00
53270;BME280;39159;45.634;9.420;2022-12-07T00:06:07;98701.91;;;2.31;100.00
53270;BME280;39159;45.634;9.420;2022-12-07T00:08:34;98701.09;;;2.31;100.00
53270;BME280;39159;45.634;9.420;2022-12-07T00:11:14;98693.00;;;2.31;100.00
53270;BME280;39159;45.634;9.420;2022-12-07T00:13:41;98700.28;;;2.30;100.00
53270;BME280;39159;45.634;9.420;2022-12-07T00:16:12;98692.75;;;2.32;100.00
53270;BME280;39159;45.634;9.420;2022-12-07T00:18:38;98690.59;;;2.29;100.00
53270;BME280;39159;45.634;9.420;2022-12-07T00:21:10;98685.75;;;2.31;100.00
53270;BME280;39159;45.634;9.420;2022-12-07T00:23:36;98685.50;;;2.33;100.00
53270;BME280;39159;45.634;9.420;2022-12-07T00:26:06;98692.75;;;2.32;100.00
53270;BME280;39159;45.634;9.420;2022-12-07T00:28:32;98689.28;;;2.32;100.00
53270;BME280;39159;45.634;9.420;2022-12-07T00:31:04;98676.31;;;2.28;100.00
53270;BME280;39159;45.634;9.420;2022-12-07T00:33:30;98685.50;;;2.33;100.00
53270;BME280;39159;45.634;9.420;2022-12-07T00:35:59;98676.34;;;2.34;100.00
53270;BME280;39159;45.634;9.420;2022-12-07T00:38:28;98662.03;;;2.23;100.00
53270;BME280;39159;45.634;9.420;2022-12-07T00:40:58;98669.88;;;2.30;100.00
53270;BME280;39159;45.634;9.420;2022-12-07T00:43:25;98661.25;;;2.27;100.00
53270;BME280;39159;45.634;9.420;2022-12-07T00:45:51;98653.66;;;2.24;100.00
53270;BME280;39159;45.634;9.420;2022-12-07T00:48:16;98667.97;;;2.30;100.00
53270;BME280;39159;45.634;9.420;2022-12-07T00:50:42;98654.22;;;2.26;100.00
53270;BME280;39159;45.634;9.420;2022-12-07T00:53:07;98652.91;;;2.29;100.00
53270;BME280;39159;45.634;9.420;2022-12-07T00:55:34;98661.50;;;2.31;100.00
53270;BME280;39159;45.634;9.420;2022-12-07T00:57:59;98665.59;;;2.34;100.00
53270;BME280;39159;45.634;9.420;2022-12-07T01:00:25;98659.13;;;2.35;100.00
53270;BME280;39159;45.634;9.420;2022-12-07T01:02:51;98651.03;;;2.35;100.00
53270;BME280;39159;45.634;9.420;2022-12-07T01:05:17;98659.13;;;2.40;100.00
53270;BME280;39159;45.634;9.420;2022-12-07T01:07:42;98658.59;;;2.38;100.00
53270;BME280;39159;45.634;9.420;2022-12-07T01:10:08;98660.78;;;2.41;100.00
53270;BME280;39159;45.634;9.420;2022-12-07T01:12:34;98659.69;;;2.42;100.00
53270;BME280;39159;45.634;9.420;2022-12-07T01:14:59;98661.81;;;2.40;100.00
53270;BME280;39159;45.634;9.420;2022-12-07T01:17:24;98656.41;;;2.35;100.00
53270;BME280;39159;45.634;9.420;2022-12-07T01:19:50;98663.16;;;2.37;100.00
53270;BME280;39159;45.634;9.420;2022-12-07T01:22:15;98651.84;;;2.35;100.00
53270;BME280;39159;45.634;9.420;2022-12-07T01:24:41;98656.41;;;2.35;100.00
53270;BME280;39159;45.634;9.420;2022-12-07T01:27:06;98661.81;;;2.35;100.00
53270;BME280;39159;45.634;9.420;2022-12-07T01:29:32;98662.06;;;2.33;100.00
53270;BME280;39159;45.634;9.420;2022-12-07T01:31:57;98659.13;;;2.35;100.00
53270;BME280;39159;45.634;9.420;2022-12-07T01:34:22;98659.13;;;2.35;100.00
53270;BME280;39159;45.634;9.420;2022-12-07T01:36:48;98654.81;;;2.34;100.00
53270;BME280;39159;45.634;9.420;2022-12-07T01:39:13;98652.38;;;2.32;100.00
53270;BME280;39159;45.634;9.420;2022-12-07T01:41:40;98654.78;;;2.28;100.00
53270;BME280;39159;45.634;9.420;2022-12-07T01:47:00;98657.44;;;2.23;100.00
53270;BME280;39159;45.634;9.420;2022-12-07T01:49:44;98657.13;;;2.20;100.00
53270;BME280;39159;45.634;9.420;2022-12-07T01:52:21;98653.09;;;2.17;100.00
53270;BME280;39159;45.634;9.420;2022-12-07T01:54:51;98650.69;;;2.16;100.00
53270;BME280;39159;45.634;9.420;2022-12-07T01:57:17;98650.16;;;2.19;100.00
53270;BME280;39159;45.634;9.420;2022-12-07T01:59:45;98656.59;;;2.18;100.00
53270;BME280;39159;45.634;9.420;2022-12-07T02:02:19;98650.94;;;2.14;100.00
53270;BME280;39159;45.634;9.420;2022-12-07T02:04:45;98649.56;;;2.12;100.00
53270;BME280;39159;45.634;9.420;2022-12-07T02:07:11;98656.53;;;2.02;100.00
53270;BME280;39159;45.634;9.420;2022-12-07T02:09:37;98657.00;;;1.99;100.00
53270;BME280;39159;45.634;9.420;2022-12-07T02:12:03;98650.53;;;1.95;100.00
53270;BME280;39159;45.634;9.420;2022-12-07T02:14:29;98653.50;;;1.94;100.00
53270;BME280;39159;45.634;9.420;2022-12-07T02:17:10;98649.16;;;1.93;100.00
53270;BME280;39159;45.634;9.420;2022-12-07T02:20:13;98655.63;;;1.92;100.00
53270;BME280;39159;45.634;9.420;2022-12-07T02:31:33;98640.38;;;1.65;100.00
53270;BME280;39159;45.634;9.420;2022-12-07T02:36:52;98645.19;;;1.63;100.00
53270;BME280;39159;45.634;9.420;2022-12-07T02:42:03;98638.72;;;1.64;100.00
53270;BME280;39159;45.634;9.420;2022-12-07T02:44:31;98638.19;;;1.62;100.00
53270;BME280;39159;45.634;9.420;2022-12-07T02:47:02;98640.38;;;1.65;100.00
53270;BME280;39159;45.634;9.420;2022-12-07T02:49:30;98639.84;;;1.68;100.00
53270;BME280;39159;45.634;9.420;2022-12-07T02:51:55;98630.16;;;1.67;100.00
53270;BME280;39159;45.634;9.420;2022-12-07T02:54:22;98629.38;;;1.72;100.00
53270;BME280;39159;45.634;9.420;2022-12-07T03:05:10;98637.94;;;1.63;100.00
53270;BME280;39159;45.634;9.420;2022-12-07T03:10:35;98626.31;;;1.58;100.00
53270;BME280;39159;45.634;9.420;2022-12-07T03:18:10;98622.25;;;1.55;100.00
53270;BME280;39159;45.634;9.420;2022-12-07T03:20:39;98615.03;;;1.56;100.00
53270;BME280;39159;45.634;9.420;2022-12-07T03:23:07;98619.06;;;1.58;100.00
53270;BME280;39159;45.634;9.420;2022-12-07T03:25:35;98617.97;;;1.59;100.00
53270;BME280;39159;45.634;9.420;2022-12-07T03:28:05;98610.72;;;1.60;100.00
53270;BME280;39159;45.634;9.420;2022-12-07T03:31:04;98613.97;;;1.62;100.00
53270;BME280;39159;45.634;9.420;2022-12-07T03:33:40;98621.75;;;1.58;100.00
53270;BME280;39159;45.634;9.420;2022-12-07T03:36:19;98614.97;;;1.51;100.00
53270;BME280;39159;45.634;9.420;2022-12-07T03:38:52;98614.16;;;1.50;100.00
53270;BME280;39159;45.634;9.420;2022-12-07T03:41:23;98605.84;;;1.52;100.00
53270;BME280;39159;45.634;9.420;2022-12-07T03:43:49;98609.03;;;1.49;100.00
53270;BME280;39159;45.634;9.420;2022-12-07T03:46:39;98612.00;;;1.47;100.00
53270;BME280;39159;45.634;9.420;2022-12-07T03:49:11;98611.44;;;1.45;100.00
53270;BME280;39159;45.634;9.420;2022-12-07T03:52:06;98605.19;;;1.39;100.00
53270;BME280;39159;45.634;9.420;2022-12-07T03:54:41;98601.94;;;1.37;100.00
53270;BME280;39159;45.634;9.420;2022-12-07T03:57:10;98598.69;;;1.35;100.00
53270;BME280;39159;45.634;9.420;2022-12-07T03:59:38;98605.72;;;1.36;100.00
53270;BME280;39159;45.634;9.420;2022-12-07T04:02:06;98600.88;;;1.38;100.00
53270;BME280;39159;45.634;9.420;2022-12-07T04:04:33;98592.75;;;1.33;100.00
53270;BME280;39159;45.634;9.420;2022-12-07T04:06:59;98589.03;;;1.34;100.00
53270;BME280;39159;45.634;9.420;2022-12-07T04:09:25;98590.34;;;1.32;100.00
53270;BME280;39159;45.634;9.420;2022-12-07T04:11:50;98590.59;;;1.30;100.00
53270;BME280;39159;45.634;9.420;2022-12-07T04:14:16;98595.72;;;1.32;100.00
53270;BME280;39159;45.634;9.420;2022-12-07T04:21:25;98575.56;;;1.29;100.00
53270;BME280;39159;45.634;9.420;2022-12-07T04:23:51;98576.34;;;1.30;100.00
53270;BME280;39159;45.634;9.420;2022-12-07T04:26:16;98571.78;;;1.30;100.00
53270;BME280;39159;45.634;9.420;2022-12-07T04:28:42;98572.91;;;1.34;100.00
53270;BME280;39159;45.634;9.420;2022-12-07T04:31:07;98566.44;;;1.35;100.00
53270;BME280;39159;45.634;9.420;2022-12-07T04:33:33;98572.66;;;1.36;100.00
53270;BME280;39159;45.634;9.420;2022-12-07T04:35:58;98565.34;;;1.31;100.00
53270;BME280;39159;45.634;9.420;2022-12-07T04:38:24;98563.19;;;1.33;100.00
53270;BME280;39159;45.634;9.420;2022-12-07T04:40:49;98565.88;;;1.33;100.00
53270;BME280;39159;45.634;9.420;2022-12-07T04:43:14;98564.03;;;1.34;100.00
53270;BME280;39159;45.634;9.420;2022-12-07T04:45:45;98575.03;;;1.32;100.00
53270;BME280;39159;45.634;9.420;2022-12-07T04:50:40;98569.34;;;1.29;100.00
53270;BME280;39159;45.634;9.420;2022-12-07T04:53:06;98565.88;;;1.33;100.00
53270;BME280;39159;45.634;9.420;2022-12-07T04:55:31;98563.75;;;1.35;100.00
53270;BME280;39159;45.634;9.420;2022-12-07T04:57:56;98575.06;;;1.37;100.00
53270;BME280;39159;45.634;9.420;2022-12-07T05:00:22;98575.06;;;1.37;100.00
53270;BME280;39159;45.634;9.420;2022-12-07T05:02:47;98571.56;;;1.37;100.00
53270;BME280;39159;45.634;9.420;2022-12-07T05:05:13;98569.69;;;1.37;100.00
53270;BME280;39159;45.634;9.420;2022-12-07T05:07:39;98568.00;;;1.63;100.00
53270;BME280;39159;45.634;9.420;2022-12-07T05:10:05;98571.81;;;1.73;100.00
53270;BME280;39159;45.634;9.420;2022-12-07T05:12:30;98576.47;;;1.82;100.00
53270;BME280;39159;45.634;9.420;2022-12-07T05:14:56;98576.00;;;1.96;100.00
53270;BME280;39159;45.634;9.420;2022-12-07T05:17:21;98575.53;;;2.09;100.00
53270;BME280;39159;45.634;9.420;2022-12-07T05:19:47;98582.63;;;2.31;100.00
53270;BME280;39159;45.634;9.420;2022-12-07T05:22:12;98572.75;;;2.57;100.00
53270;BME280;39159;45.634;9.420;2022-12-07T05:24:38;98577.94;;;2.89;100.00
53270;BME280;39159;45.634;9.420;2022-12-07T05:27:04;98577.72;;;3.01;100.00
53270;BME280;39159;45.634;9.420;2022-12-07T05:29:29;98581.22;;;3.22;100.00
53270;BME280;39159;45.634;9.420;2022-12-07T05:31:55;98571.81;;;3.45;100.00
53270;BME280;39159;45.634;9.420;2022-12-07T05:34:20;98588.00;;;3.60;100.00
53270;BME280;39159;45.634;9.420;2022-12-07T05:36:45;98587.44;;;3.73;100.00
53270;BME280;39159;45.634;9.420;2022-12-07T05:39:11;98577.97;;;3.81;100.00
53270;BME280;39159;45.634;9.420;2022-12-07T05:41:36;98586.88;;;3.82;100.00
53270;BME280;39159;45.634;9.420;2022-12-07T05:44:21;98585.00;;;3.57;100.00
53270;BME280;39159;45.634;9.420;2022-12-07T05:46:46;98588.00;;;3.29;100.00
53270;BME280;39159;45.634;9.420;2022-12-07T05:49:12;98586.59;;;3.01;100.00
53270;BME280;39159;45.634;9.420;2022-12-07T05:51:37;98587.91;;;2.78;100.00
53270;BME280;39159;45.634;9.420;2022-12-07T05:54:03;98587.81;;;2.58;100.00
53270;BME280;39159;45.634;9.420;2022-12-07T05:56:28;98585.69;;;2.55;100.00
53270;BME280;39159;45.634;9.420;2022-12-07T05:58:54;98585.97;;;2.68;100.00
53270;BME280;39159;45.634;9.420;2022-12-07T06:01:38;98579.28;;;2.86;100.00
53270;BME280;39159;45.634;9.420;2022-12-07T06:04:04;98582.50;;;2.73;100.00
53270;BME280;39159;45.634;9.420;2022-12-07T06:06:29;98580.84;;;2.57;100.00
53270;BME280;39159;45.634;9.420;2022-12-07T06:08:55;98589.72;;;2.52;100.00
53270;BME280;39159;45.634;9.420;2022-12-07T06:11:20;98591.38;;;2.68;100.00
53270;BME280;39159;45.634;9.420;2022-12-07T06:14:04;98594.69;;;3.01;100.00
53270;BME280;39159;45.634;9.420;2022-12-07T06:16:30;98598.72;;;3.04;100.00
53270;BME280;39159;45.634;9.420;2022-12-07T06:18:55;98600.00;;;2.70;100.00
53270;BME280;39159;45.634;9.420;2022-12-07T06:21:21;98594.72;;;2.28;100.00
53270;BME280;39159;45.634;9.420;2022-12-07T06:23:47;98595.44;;;2.08;100.00
53270;BME280;39159;45.634;9.420;2022-12-07T06:26:13;98597.00;;;1.99;100.00
53270;BME280;39159;45.634;9.420;2022-12-07T06:28:39;98599.06;;;1.86;100.00
53270;BME280;39159;45.634;9.420;2022-12-07T06:31:05;98601.16;;;1.74;100.00
53270;BME280;39159;45.634;9.420;2022-12-07T06:33:31;98595.47;;;1.71;100.00
53270;BME280;39159;45.634;9.420;2022-12-07T06:35:56;98601.88;;;1.64;100.00
53270;BME280;39159;45.634;9.420;2022-12-07T06:38:22;98602.94;;;1.58;100.00
53270;BME280;39159;45.634;9.420;2022-12-07T06:40:47;98595.88;;;1.52;100.00
53270;BME280;39159;45.634;9.420;2022-12-07T06:43:13;98597.47;;;1.48;100.00
53270;BME280;39159;45.634;9.420;2022-12-07T06:45:40;98600.41;;;1.47;100.00
53270;BME280;39159;45.634;9.420;2022-12-07T06:48:06;98595.03;;;1.47;100.00
53270;BME280;39159;45.634;9.420;2022-12-07T06:50:31;98597.69;;;1.41;100.00
53270;BME280;39159;45.634;9.420;2022-12-07T06:52:57;98594.69;;;1.38;100.00
53270;BME280;39159;45.634;9.420;2022-12-07T06:55:22;98592.00;;;1.38;100.00
53270;BME280;39159;45.634;9.420;2022-12-07T06:57:48;98598.44;;;1.37;100.00
53270;BME280;39159;45.634;9.420;2022-12-07T07:00:14;98591.41;;;1.31;100.00
53270;BME280;39159;45.634;9.420;2022-12-07T07:02:39;98599.75;;;1.29;100.00
53270;BME280;39159;45.634;9.420;2022-12-07T07:05:05;98599.19;;;1.27;100.00
53270;BME280;39159;45.634;9.420;2022-12-07T07:07:30;98595.41;;;1.28;100.00
53270;BME280;39159;45.634;9.420;2022-12-07T07:09:56;98603.00;;;1.31;100.00
53270;BME280;39159;45.634;9.420;2022-12-07T07:12:21;98605.16;;;1.34;100.00
53270;BME280;39159;45.634;9.420;2022-12-07T07:14:47;98603.81;;;1.37;100.00
53270;BME280;39159;45.634;9.420;2022-12-07T07:17:12;98605.72;;;1.36;100.00
53270;BME280;39159;45.634;9.420;2022-12-07T07:19:38;98608.13;;;1.38;100.00
53270;BME280;39159;45.634;9.420;2022-12-07T07:22:04;98605.22;;;1.44;100.00
53270;BME280;39159;45.634;9.420;2022-12-07T07:24:29;98607.41;;;1.48;100.00
53270;BME280;39159;45.634;9.420;2022-12-07T07:26:55;98609.13;;;1.59;100.00
53270;BME280;39159;45.634;9.420;2022-12-07T07:29:21;98608.66;;;1.72;100.00
53270;BME280;39159;45.634;9.420;2022-12-07T07:31:46;98615.53;;;1.95;100.00
53270;BME280;39159;45.634;9.420;2022-12-07T07:34:12;98623.44;;;2.07;100.00
53270;BME280;39159;45.634;9.420;2022-12-07T07:36:37;98621.63;;;2.23;100.00
53270;BME280;39159;45.634;9.420;2022-12-07T07:39:02;98625.22;;;2.44;100.00
53270;BME280;39159;45.634;9.420;2022-12-07T07:41:28;98625.28;;;2.54;100.00
53270;BME280;39159;45.634;9.420;2022-12-07T07:43:53;98626.44;;;2.84;100.00
53270;BME280;39159;45.634;9.420;2022-12-07T07:46:19;98638.94;;;3.21;100.00
53270;BME280;39159;45.634;9.420;2022-12-07T07:48:44;98635.75;;;3.49;100.00
53270;BME280;39159;45.634;9.420;2022-12-07T07:51:10;98638.41;;;3.75;100.00
53270;BME280;39159;45.634;9.420;2022-12-07T07:53:35;98633.81;;;4.01;100.00
53270;BME280;39159;45.634;9.420;2022-12-07T07:56:01;98631.88;;;4.22;100.00
53270;BME280;39159;45.634;9.420;2022-12-07T07:58:27;98643.44;;;4.43;100.00
53270;BME280;39159;45.634;9.420;2022-12-07T08:00:53;98636.88;;;4.65;100.00
53270;BME280;39159;45.634;9.420;2022-12-07T08:03:18;98639.00;;;4.78;100.00
53270;BME280;39159;45.634;9.420;2022-12-07T08:05:44;98647.00;;;4.93;100.00
53270;BME280;39159;45.634;9.420;2022-12-07T08:08:09;98643.91;;;5.15;100.00
53270;BME280;39159;45.634;9.420;2022-12-07T08:10:35;98651.63;;;5.37;100.00
53270;BME280;39159;45.634;9.420;2022-12-07T08:13:02;98656.59;;;5.59;100.00
53270;BME280;39159;45.634;9.420;2022-12-07T08:15:38;98654.56;;;5.80;100.00
53270;BME280;39159;45.634;9.420;2022-12-07T08:18:04;98658.25;;;5.95;100.00
53270;BME280;39159;45.634;9.420;2022-12-07T08:20:31;98659.56;;;5.97;100.00
53270;BME280;39159;45.634;9.420;2022-12-07T08:22:58;98656.66;;;5.89;100.00
53270;BME280;39159;45.634;9.420;2022-12-07T08:25:23;98654.13;;;6.03;100.00
53270;BME280;39159;45.634;9.420;2022-12-07T08:27:49;98663.91;;;5.93;100.00
53270;BME280;39159;45.634;9.420;2022-12-07T08:30:15;98666.66;;;5.88;100.00
53270;BME280;39159;45.634;9.420;2022-12-07T08:32:41;98665.28;;;5.91;100.00
53270;BME280;39159;45.634;9.420;2022-12-07T08:35:07;98664.13;;;6.02;100.00
53270;BME280;39159;45.634;9.420;2022-12-07T08:37:33;98663.78;;;6.14;100.00
53270;BME280;39159;45.634;9.420;2022-12-07T08:39:58;98663.50;;;6.39;100.00
53270;BME280;39159;45.634;9.420;2022-12-07T08:42:24;98660.81;;;6.63;100.00
53270;BME280;39159;45.634;9.420;2022-12-07T08:44:54;98661.06;;;6.86;100.00
53270;BME280;39159;45.634;9.420;2022-12-07T08:47:20;98662.72;;;7.06;100.00
53270;BME280;39159;45.634;9.420;2022-12-07T08:49:47;98655.47;;;7.20;100.00
53270;BME280;39159;45.634;9.420;2022-12-07T08:52:16;98653.03;;;7.38;100.00
53270;BME280;39159;45.634;9.420;2022-12-07T08:54:41;98659.66;;;7.51;100.00
53270;BME280;39159;45.634;9.420;2022-12-07T08:57:08;98657.44;;;7.72;100.00
53270;BME280;39159;45.634;9.420;2022-12-07T08:59:36;98658.13;;;7.96;99.02
53270;BME280;39159;45.634;9.420;2022-12-07T09:02:03;98655.31;;;8.15;96.57
53270;BME280;39159;45.634;9.420;2022-12-07T09:04:29;98664.75;;;8.37;95.62
53270;BME280;39159;45.634;9.420;2022-12-07T09:06:55;98670.22;;;8.50;90.50
53270;BME280;39159;45.634;9.420;2022-12-07T09:09:20;98673.03;;;8.73;92.26
53270;BME280;39159;45.634;9.420;2022-12-07T09:11:46;98675.69;;;8.78;86.68
53270;BME280;39159;45.634;9.420;2022-12-07T09:14:12;98685.34;;;8.84;87.01
53270;BME280;39159;45.634;9.420;2022-12-07T09:16:38;98680.78;;;9.07;89.04
53270;BME280;39159;45.634;9.420;2022-12-07T09:19:03;98678.81;;;8.71;86.13
53270;BME280;39159;45.634;9.420;2022-12-07T09:21:29;98676.66;;;8.68;85.50
53270;BME280;39159;45.634;9.420;2022-12-07T09:23:54;98673.25;;;8.90;88.30
53270;BME280;39159;45.634;9.420;2022-12-07T09:26:19;98666.47;;;9.02;86.42
53270;BME280;39159;45.634;9.420;2022-12-07T09:28:45;98666.66;;;9.19;83.78
53270;BME280;39159;45.634;9.420;2022-12-07T09:31:10;98663.28;;;9.36;83.34
53270;BME280;39159;45.634;9.420;2022-12-07T09:33:36;98664.41;;;9.58;83.37
53270;BME280;39159;45.634;9.420;2022-12-07T09:36:03;98669.38;;;9.78;82.58
53270;BME280;39159;45.634;9.420;2022-12-07T09:38:29;98662.19;;;9.82;79.52
53270;BME280;39159;45.634;9.420;2022-12-07T09:40:55;98674.66;;;9.74;78.76
53270;BME280;39159;45.634;9.420;2022-12-07T09:43:23;98669.44;;;9.87;75.59
53270;BME280;39159;45.634;9.420;2022-12-07T09:45:51;98664.47;;;10.11;77.67
53270;BME280;39159;45.634;9.420;2022-12-07T09:48:34;98668.66;;;9.86;75.94
53270;BME280;39159;45.634;9.420;2022-12-07T09:51:18;98665.34;;;9.98;76.45
53270;BME280;39159;45.634;9.420;2022-12-07T09:53:45;98659.97;;;10.29;76.88
53270;BME280;39159;45.634;9.420;2022-12-07T09:56:15;98658.16;;;10.02;73.99
53270;BME280;39159;45.634;9.420;2022-12-07T09:58:41;98655.38;;;10.39;74.91
53270;BME280;39159;45.634;9.420;2022-12-07T10:03:34;98649.28;;;10.90;71.65
53270;BME280;39159;45.634;9.420;2022-12-07T10:06:01;98651.72;;;11.01;70.54
53270;BME280;39159;45.634;9.420;2022-12-07T10:08:26;98649.31;;;11.08;70.86
53270;BME280;39159;45.634;9.420;2022-12-07T10:10:56;98644.34;;;11.01;67.05
53270;BME280;39159;45.634;9.420;2022-12-07T10:13:35;98637.59;;;10.98;68.08
53270;BME280;39159;45.634;9.420;2022-12-07T10:16:00;98643.53;;;11.01;68.58
53270;BME280;39159;45.634;9.420;2022-12-07T10:18:40;98635.09;;;10.71;68.92
53270;BME280;39159;45.634;9.420;2022-12-07T10:21:18;98641.28;;;11.11;71.61
53270;BME280;39159;45.634;9.420;2022-12-07T10:26:50;98628.16;;;11.39;67.56
53270;BME280;39159;45.634;9.420;2022-12-07T10:29:20;98627.50;;;11.60;68.12
53270;BME280;39159;45.634;9.420;2022-12-07T10:31:58;98621.69;;;11.70;65.19
53270;BME280;39159;45.634;9.420;2022-12-07T10:34:35;98618.13;;;11.87;65.15
53270;BME280;39159;45.634;9.420;2022-12-07T10:39:50;98613.50;;;11.53;66.27
53270;BME280;39159;45.634;9.420;2022-12-07T10:42:29;98617.03;;;11.79;66.30
53270;BME280;39159;45.634;9.420;2022-12-07T10:45:16;98619.59;;;12.02;67.38
53270;BME280;39159;45.634;9.420;2022-12-07T10:47:49;98614.91;;;12.02;65.43
53270;BME280;39159;45.634;9.420;2022-12-07T10:55:26;98596.91;;;12.01;65.92
53270;BME280;39159;45.634;9.420;2022-12-07T10:57:56;98597.50;;;12.16;64.55
53270;BME280;39159;45.634;9.420;2022-12-07T11:00:29;98590.03;;;12.34;64.17
53270;BME280;39159;45.634;9.420;2022-12-07T11:03:19;98592.56;;;12.48;63.88
53270;BME280;39159;45.634;9.420;2022-12-07T11:08:47;98588.34;;;12.50;64.78
53270;BME280;39159;45.634;9.420;2022-12-07T11:11:26;98592.22;;;12.49;65.02
53270;BME280;39159;45.634;9.420;2022-12-07T11:19:50;98578.69;;;12.53;65.39
53270;BME280;39159;45.634;9.420;2022-12-07T11:31:00;98559.31;;;12.58;64.70
53270;BME280;39159;45.634;9.420;2022-12-07T11:33:55;98559.56;;;12.44;64.43
53270;BME280;39159;45.634;9.420;2022-12-07T11:38:54;98560.75;;;12.34;65.15
53270;BME280;39159;45.634;9.420;2022-12-07T11:41:31;98555.91;;;12.31;65.26
53270;BME280;39159;45.634;9.420;2022-12-07T11:47:10;98554.44;;;12.34;65.27
53270;BME280;39159;45.634;9.420;2022-12-07T11:55:54;98552.84;;;12.33;64.93
53270;BME280;39159;45.634;9.420;2022-12-07T12:03:56;98541.53;;;12.05;68.17
53270;BME280;39159;45.634;9.420;2022-12-07T12:06:23;98543.16;;;12.06;64.53
53270;BME280;39159;45.634;9.420;2022-12-07T12:08:55;98535.31;;;11.87;65.64
53270;BME280;39159;45.634;9.420;2022-12-07T12:20:21;98535.91;;;12.10;64.72
53270;BME280;39159;45.634;9.420;2022-12-07T12:22:47;98537.34;;;12.07;63.42
53270;BME280;39159;45.634;9.420;2022-12-07T12:26:00;98529.22;;;11.81;66.04
53270;BME280;39159;45.634;9.420;2022-12-07T12:28:29;98521.84;;;11.64;70.37
53270;BME280;39159;45.634;9.420;2022-12-07T12:33:59;98517.66;;;11.75;70.15
53270;BME280;39159;45.634;9.420;2022-12-07T12:46:47;98502.50;;;10.96;74.23
53270;BME280;39159;45.634;9.420;2022-12-07T12:51:58;98498.16;;;11.12;74.78
53270;BME280;39159;45.634;9.420;2022-12-07T12:57:32;98500.53;;;11.40;73.54
53270;BME280;39159;45.634;9.420;2022-12-07T13:00:00;98488.13;;;11.43;72.57
53270;BME280;39159;45.634;9.420;2022-12-07T13:02:39;98489.44;;;11.45;72.63
53270;BME280;39159;45.634;9.420;2022-12-07T13:15:50;98489.44;;;11.45;75.24
53270;BME280;39159;45.634;9.420;2022-12-07T13:20:56;98486.44;;;10.94;75.28
53270;BME280;39159;45.634;9.420;2022-12-07T13:26:21;98479.03;;;10.60;77.58
53270;BME280;39159;45.634;9.420;2022-12-07T13:29:13;98479.44;;;10.27;80.52
53270;BME280;39159;45.634;9.420;2022-12-07T13:36:55;98469.59;;;10.09;81.66
53270;BME280;39159;45.634;9.420;2022-12-07T13:39:23;98469.84;;;9.81;83.29
53270;BME280;39159;45.634;9.420;2022-12-07T13:41:52;98465.59;;;9.66;85.52
53270;BME280;39159;45.634;9.420;2022-12-07T13:44:18;98472.28;;;9.60;87.40
53270;BME280;39159;45.634;9.420;2022-12-07T13:49:32;98468.63;;;9.33;89.69
53270;BME280;39159;45.634;9.420;2022-12-07T13:52:23;98474.16;;;9.20;88.83
53270;BME280;39159;45.634;9.420;2022-12-07T13:57:29;98467.28;;;8.77;93.50
53270;BME280;39159;45.634;9.420;2022-12-07T13:59:56;98460.19;;;8.54;96.38
53270;BME280;39159;45.634;9.420;2022-12-07T14:02:24;98464.25;;;8.42;98.02
53270;BME280;39159;45.634;9.420;2022-12-07T14:04:51;98459.72;;;8.24;100.00
53270;BME280;39159;45.634;9.420;2022-12-07T14:07:28;98454.50;;;8.00;100.00
53270;BME280;39159;45.634;9.420;2022-12-07T14:09:59;98458.03;;;8.00;100.00
53270;BME280;39159;45.634;9.420;2022-12-07T14:12:26;98457.53;;;7.98;100.00
53270;BME280;39159;45.634;9.420;2022-12-07T14:14:52;98467.47;;;7.89;100.00
53270;BME280;39159;45.634;9.420;2022-12-07T14:17:20;98460.06;;;7.81;100.00
53270;BME280;39159;45.634;9.420;2022-12-07T14:19:56;98459.34;;;7.75;100.00
53270;BME280;39159;45.634;9.420;2022-12-07T14:24:50;98470.88;;;7.53;100.00
53270;BME280;39159;45.634;9.420;2022-12-07T14:27:23;98472.66;;;7.30;100.00
53270;BME280;39159;45.634;9.420;2022-12-07T14:29:51;98471.59;;;7.12;100.00
53270;BME280;39159;45.634;9.420;2022-12-07T14:37:23;98463.66;;;6.64;100.00
53270;BME280;39159;45.634;9.420;2022-12-07T14:39:52;98475.41;;;6.59;100.00
53270;BME280;39159;45.634;9.420;2022-12-07T14:42:17;98474.53;;;6.45;100.00
53270;BME280;39159;45.634;9.420;2022-12-07T14:44:46;98475.69;;;6.39;100.00
53270;BME280;39159;45.634;9.420;2022-12-07T14:47:11;98468.63;;;6.38;100.00
53270;BME280;39159;45.634;9.420;2022-12-07T14:49:37;98479.13;;;6.26;100.00
53270;BME280;39159;45.634;9.420;2022-12-07T14:52:03;98478.84;;;6.27;100.00
53270;BME280;39159;45.634;9.420;2022-12-07T14:54:33;98478.44;;;6.15;100.00
53270;BME280;39159;45.634;9.420;2022-12-07T14:56:58;98480.28;;;5.95;100.00
53270;BME280;39159;45.634;9.420;2022-12-07T14:59:23;98486.53;;;5.67;100.00
53270;BME280;39159;45.634;9.420;2022-12-07T15:01:50;98477.25;;;5.49;100.00
53270;BME280;39159;45.634;9.420;2022-12-07T15:04:16;98482.59;;;5.30;100.00
53270;BME280;39159;45.634;9.420;2022-12-07T15:06:41;98491.25;;;5.27;100.00
53270;BME280;39159;45.634;9.420;2022-12-07T15:09:10;98490.75;;;5.25;100.00
53270;BME280;39159;45.634;9.420;2022-12-07T15:11:36;98497.00;;;5.20;100.00
53270;BME280;39159;45.634;9.420;2022-12-07T15:14:02;98487.53;;;5.23;100.00
53270;BME280;39159;45.634;9.420;2022-12-07T15:16:34;98494.38;;;5.10;100.00
53270;BME280;39159;45.634;9.420;2022-12-07T15:19:00;98504.09;;;5.11;100.00
53270;BME280;39159;45.634;9.420;2022-12-07T15:21:25;98500.84;;;5.14;100.00
53270;BME280;39159;45.634;9.420;2022-12-07T15:23:51;98501.91;;;5.18;100.00
53270;BME280;39159;45.634;9.420;2022-12-07T15:26:16;98501.91;;;5.18;100.00
53270;BME280;39159;45.634;9.420;2022-12-07T15:28:42;98494.91;;;5.12;100.00
53270;BME280;39159;45.634;9.420;2022-12-07T15:31:12;98499.63;;;4.96;100.00
53270;BME280;39159;45.634;9.420;2022-12-07T15:33:38;98513.31;;;4.70;100.00
53270;BME280;39159;45.634;9.420;2022-12-07T15:36:04;98503.19;;;4.47;100.00
53270;BME280;39159;45.634;9.420;2022-12-07T15:38:29;98507.91;;;4.21;100.00